Time;durP1;ratioP1;P1;durP2;ratioP2;P2;SDS_P1;SDS_P2;PMS_P1;PMS_P2;Temp;Humidity;BMP_temperature;BMP_pressure;BME280_temperature;BME280_humidity;BME280_pressure;Samples;Min_cycle;Max_cycle;Signal;HPM_P1;HPM_P2
2022/08/15 00:00:35;;;;;;;12.17;10.77;;;21.50;76.20;;;;;;4879961;29;20131;-67
2022/08/15 00:03:03;;;;;;;12.53;10.87;;;21.40;76.20;;;;;;4911409;29;20559;-67
2022/08/15 00:05:33;;;;;;;12.90;10.83;;;21.30;76.50;;;;;;4905604;29;20052;-67
2022/08/15 00:07:59;;;;;;;12.00;8.97;;;21.30;76.00;;;;;;4891621;29;20681;-67
2022/08/15 00:10:26;;;;;;;9.73;8.53;;;21.30;75.60;;;;;;4925761;29;20040;-67
2022/08/15 00:12:51;;;;;;;9.30;8.23;;;21.20;75.30;;;;;;4872353;29;20051;-67
2022/08/15 00:15:19;;;;;;;8.70;7.80;;;21.30;75.40;;;;;;4926286;29;20044;-67
2022/08/15 00:17:48;;;;;;;8.80;7.87;;;21.30;75.20;;;;;;4896986;29;20047;-67
2022/08/15 00:20:15;;;;;;;9.93;8.17;;;21.30;75.20;;;;;;4897183;29;20061;-67
2022/08/15 00:22:50;;;;;;;9.60;8.27;;;21.30;75.00;;;;;;4911468;29;20044;-67
2022/08/15 00:25:16;;;;;;;8.93;8.03;;;21.30;75.00;;;;;;4893553;29;20064;-67
2022/08/15 00:27:42;;;;;;;9.70;8.20;;;21.30;74.90;;;;;;4916021;29;20076;-67
2022/08/15 00:30:12;;;;;;;11.23;8.90;;;21.30;74.80;;;;;;4897293;29;20040;-67
2022/08/15 00:32:38;;;;;;;10.20;9.13;;;21.30;74.70;;;;;;4912969;29;20067;-67
2022/08/15 00:35:35;;;;;;;9.60;8.47;;;21.30;74.60;;;;;;4897026;29;20040;-67
2022/08/15 00:37:55;;;;;;;10.57;9.03;;;21.30;74.60;;;;;;4913474;29;20436;-67
2022/08/15 00:40:23;;;;;;;9.37;8.47;;;21.30;74.50;;;;;;4909222;29;20126;-66
2022/08/15 00:42:50;;;;;;;11.83;9.27;;;21.20;74.70;;;;;;4911747;29;20142;-66
2022/08/15 00:45:17;;;;;;;10.20;8.73;;;21.20;74.60;;;;;;4894701;29;20408;-66
2022/08/15 00:48:41;;;;;;;10.80;9.20;;;21.10;74.70;;;;;;4922186;29;20043;-66
2022/08/15 00:50:28;;;;;;;10.67;9.47;;;21.10;74.80;;;;;;4896034;29;20548;-66
2022/08/15 00:52:54;;;;;;;12.30;10.23;;;21.00;75.00;;;;;;4895647;29;20144;-66
2022/08/15 00:55:20;;;;;;;11.33;10.13;;;21.00;76.40;;;;;;4909700;29;20516;-66
2022/08/15 00:57:48;;;;;;;13.23;10.37;;;20.90;75.80;;;;;;4907221;29;20044;-66
2022/08/15 01:00:20;;;;;;;13.30;10.43;;;20.90;75.70;;;;;;4912408;29;20056;-66
2022/08/15 01:02:46;;;;;;;11.80;10.23;;;20.90;75.90;;;;;;4903195;29;20044;-66
2022/08/15 01:05:15;;;;;;;11.00;9.83;;;20.90;75.90;;;;;;4884484;29;20047;-66
2022/08/15 01:07:43;;;;;;;12.93;10.87;;;20.80;75.80;;;;;;4910295;29;20575;-66
2022/08/15 01:10:10;;;;;;;14.50;11.20;;;20.80;75.80;;;;;;4882828;29;20044;-66
2022/08/15 01:12:37;;;;;;;13.43;10.87;;;20.90;75.90;;;;;;4903488;29;20046;-66
2022/08/15 01:15:15;;;;;;;12.27;10.97;;;20.90;75.80;;;;;;4902013;29;20052;-66
2022/08/15 01:17:43;;;;;;;14.03;10.57;;;20.90;75.80;;;;;;4905271;29;20047;-66
2022/08/15 01:20:40;;;;;;;11.87;10.20;;;20.90;75.60;;;;;;4893266;29;20071;-66
2022/08/15 01:23:40;;;;;;;11.33;10.00;;;20.90;75.60;;;;;;4899430;29;20062;-66
2022/08/15 01:26:07;;;;;;;11.80;10.60;;;20.90;75.50;;;;;;4908426;29;20128;-66
2022/08/15 01:28:37;;;;;;;11.97;10.47;;;20.90;75.30;;;;;;4896091;29;20055;-66
2022/08/15 01:31:17;;;;;;;11.33;10.13;;;20.90;75.80;;;;;;4891600;29;20116;-66
2022/08/15 01:33:46;;;;;;;12.57;10.67;;;20.80;75.60;;;;;;4910554;29;20035;-66
2022/08/15 01:36:12;;;;;;;13.53;11.33;;;20.80;75.70;;;;;;4911589;29;20044;-66
2022/08/15 01:38:47;;;;;;;13.07;10.97;;;20.70;75.70;;;;;;4895719;29;20044;-65
2022/08/15 01:41:35;;;;;;;13.48;10.05;;;20.70;75.90;;;;;;4910127;29;20075;-66
2022/08/15 01:44:13;;;;;;;11.80;9.97;;;20.70;76.00;;;;;;4903793;29;20051;-66
2022/08/15 01:46:47;;;;;;;13.40;10.70;;;20.60;75.90;;;;;;4911647;29;20055;-66
2022/08/15 01:49:21;;;;;;;12.27;10.68;;;20.60;75.90;;;;;;4905643;29;20048;-66
2022/08/15 01:51:49;;;;;;;13.63;11.73;;;20.50;75.90;;;;;;4911259;29;20054;-66
2022/08/15 01:54:16;;;;;;;13.90;12.23;;;20.50;76.20;;;;;;4895137;29;20440;-66
2022/08/15 01:56:45;;;;;;;14.73;11.33;;;20.50;76.60;;;;;;4904395;29;20444;-65
2022/08/15 01:59:18;;;;;;;11.57;10.37;;;20.50;76.60;;;;;;4910232;29;20052;-66
2022/08/15 02:01:54;;;;;;;12.10;10.10;;;20.40;76.70;;;;;;4894480;29;20540;-65
2022/08/15 02:04:28;;;;;;;12.40;10.50;;;20.40;76.60;;;;;;4888600;29;20050;-65
2022/08/15 02:06:55;;;;;;;14.15;11.85;;;20.30;76.80;;;;;;4912278;29;20048;-65
2022/08/15 02:09:21;;;;;;;12.53;10.30;;;20.30;77.30;;;;;;4913574;29;20041;-65
2022/08/15 02:11:49;;;;;;;12.67;11.37;;;20.20;77.00;;;;;;4905100;29;20051;-65
2022/08/15 02:14:15;;;;;;;16.10;11.80;;;20.20;77.10;;;;;;4891737;29;20043;-66
2022/08/15 02:16:42;;;;;;;16.40;12.13;;;20.20;77.30;;;;;;4900878;29;20051;-66
2022/08/15 02:19:10;;;;;;;16.23;12.80;;;20.20;77.50;;;;;;4903599;29;20126;-66
2022/08/15 02:21:37;;;;;;;14.63;12.47;;;20.20;77.60;;;;;;4903204;29;20044;-65
2022/08/15 02:24:14;;;;;;;16.10;13.47;;;20.20;77.60;;;;;;4913334;29;20521;-66
2022/08/15 02:26:40;;;;;;;17.10;13.37;;;20.30;77.50;;;;;;4900986;29;20048;-65
2022/08/15 02:29:06;;;;;;;16.50;13.73;;;20.30;77.70;;;;;;4903692;29;20035;-65
2022/08/15 02:31:33;;;;;;;17.00;13.23;;;20.30;77.70;;;;;;4894504;29;20035;-66
2022/08/15 02:34:01;;;;;;;18.40;14.87;;;20.30;77.60;;;;;;4894401;29;20138;-66
2022/08/15 02:36:31;;;;;;;17.17;14.47;;;20.40;77.70;;;;;;4911106;29;20062;-66
2022/08/15 02:38:58;;;;;;;19.17;14.37;;;20.40;78.10;;;;;;4905703;29;20143;-66
2022/08/15 02:41:33;;;;;;;17.17;14.27;;;20.40;77.90;;;;;;4909675;29;20447;-66
2022/08/15 02:44:01;;;;;;;18.33;13.73;;;20.40;77.90;;;;;;4909436;29;20317;-66
2022/08/15 02:46:29;;;;;;;18.73;15.00;;;20.40;77.90;;;;;;4905058;29;20050;-66
2022/08/15 02:48:58;;;;;;;17.70;14.70;;;20.50;77.90;;;;;;4910341;29;20185;-65
2022/08/15 02:51:25;;;;;;;19.70;15.17;;;20.50;77.90;;;;;;4896895;29;20047;-65
2022/08/15 02:53:53;;;;;;;15.03;13.33;;;20.50;77.90;;;;;;4904575;29;20139;-65
2022/08/15 02:56:23;;;;;;;19.60;15.03;;;20.50;77.80;;;;;;4920876;29;20055;-65
2022/08/15 02:58:49;;;;;;;16.93;14.10;;;20.50;77.60;;;;;;4910596;29;20135;-65
2022/08/15 03:01:16;;;;;;;17.53;14.83;;;20.50;77.60;;;;;;4915258;29;20046;-66
2022/08/15 03:03:46;;;;;;;18.63;13.97;;;20.50;77.50;;;;;;4914307;29;20044;-66
2022/08/15 03:06:13;;;;;;;16.20;13.53;;;20.50;77.40;;;;;;4910126;29;20048;-66
2022/08/15 03:08:41;;;;;;;16.60;13.83;;;20.50;77.30;;;;;;4905526;29;20073;-66
2022/08/15 03:11:08;;;;;;;16.10;13.63;;;20.50;77.30;;;;;;4919768;29;20500;-65
2022/08/15 03:13:35;;;;;;;16.80;14.33;;;20.50;77.40;;;;;;4899823;29;20067;-66
2022/08/15 03:16:04;;;;;;;15.73;13.40;;;20.40;77.30;;;;;;4917131;29;20059;-66
2022/08/15 03:18:34;;;;;;;18.57;14.97;;;20.40;77.40;;;;;;4914002;29;20039;-66
2022/08/15 03:21:07;;;;;;;17.20;14.53;;;20.40;77.40;;;;;;4892492;29;20353;-66
2022/08/15 03:23:33;;;;;;;19.10;14.97;;;20.40;77.40;;;;;;4907202;29;20349;-66
2022/08/15 03:26:01;;;;;;;19.57;15.30;;;20.40;77.40;;;;;;4892605;29;20043;-66
2022/08/15 03:28:31;;;;;;;15.80;14.10;;;20.40;77.50;;;;;;4929250;29;20043;-66
2022/08/15 03:30:59;;;;;;;20.27;15.80;;;20.30;77.50;;;;;;4911939;29;20123;-66
2022/08/15 03:33:26;;;;;;;22.83;16.43;;;20.30;77.90;;;;;;4916499;29;20392;-66
2022/08/15 03:35:52;;;;;;;18.20;15.83;;;20.30;77.80;;;;;;4913394;29;20471;-66
2022/08/15 03:38:18;;;;;;;19.80;15.80;;;20.20;77.60;;;;;;4916838;29;21190;-66
2022/08/15 03:40:47;;;;;;;20.77;15.40;;;20.20;77.60;;;;;;4894382;29;20153;-66
2022/08/15 03:43:33;;;;;;;21.27;15.77;;;20.10;77.70;;;;;;4911327;29;20081;-66
2022/08/15 03:46:02;;;;;;;21.13;15.90;;;20.10;77.60;;;;;;4904916;29;20406;-66
2022/08/15 03:48:42;;;;;;;20.20;16.33;;;20.10;77.70;;;;;;4909967;29;20409;-66
2022/08/15 03:51:10;;;;;;;20.63;15.83;;;20.00;77.60;;;;;;4910573;29;20059;-66
2022/08/15 03:53:58;;;;;;;18.80;16.30;;;20.00;77.50;;;;;;4916314;29;20060;-66
2022/08/15 03:56:27;;;;;;;21.10;16.57;;;20.00;77.50;;;;;;4910969;29;20075;-66
2022/08/15 03:58:54;;;;;;;18.93;15.80;;;20.00;77.50;;;;;;4906383;29;20408;-66
2022/08/15 04:01:23;;;;;;;19.57;15.40;;;20.00;77.30;;;;;;4905766;29;20048;-66
2022/08/15 04:03:50;;;;;;;18.27;14.87;;;20.00;77.30;;;;;;4911769;29;20083;-66
2022/08/15 04:06:19;;;;;;;20.93;15.90;;;20.00;77.20;;;;;;4910637;29;20523;-66
2022/08/15 04:08:47;;;;;;;20.33;14.70;;;20.00;77.10;;;;;;4897900;29;20276;-66
2022/08/15 04:11:14;;;;;;;17.73;13.53;;;20.00;76.90;;;;;;4916064;29;20044;-66
2022/08/15 04:13:41;;;;;;;17.37;15.13;;;20.00;76.90;;;;;;4910482;29;20043;-66
2022/08/15 04:16:08;;;;;;;18.93;14.83;;;20.00;77.00;;;;;;4901647;29;20118;-66
2022/08/15 04:18:34;;;;;;;16.43;14.23;;;19.90;76.90;;;;;;4912896;29;20051;-66
2022/08/15 04:21:03;;;;;;;18.77;15.23;;;19.90;76.90;;;;;;4910232;29;20439;-66
2022/08/15 04:23:29;;;;;;;17.43;14.03;;;20.00;76.80;;;;;;4907701;29;20055;-66
2022/08/15 04:25:55;;;;;;;16.97;14.23;;;19.90;76.80;;;;;;4914049;29;20050;-66
2022/08/15 04:28:23;;;;;;;17.97;14.33;;;19.90;76.70;;;;;;4930928;29;20048;-66
2022/08/15 04:30:49;;;;;;;16.83;14.13;;;19.90;76.80;;;;;;4904530;29;20138;-66
2022/08/15 04:33:23;;;;;;;17.30;14.00;;;19.90;76.90;;;;;;4908276;29;20044;-67
2022/08/15 04:36:15;;;;;;;;;;;19.90;76.90;;;;;;4914372;29;20044;-67
2022/08/15 04:38:43;;;;;;;20.63;14.23;;;19.90;76.80;;;;;;4906778;29;20294;-67
2022/08/15 04:41:10;;;;;;;16.83;12.63;;;19.90;76.80;;;;;;4900199;29;20036;-67
2022/08/15 04:43:38;;;;;;;16.37;12.87;;;20.00;76.80;;;;;;4911259;29;20040;-67
2022/08/15 04:46:05;;;;;;;16.87;13.00;;;20.00;76.90;;;;;;4914222;29;20031;-67
2022/08/15 04:48:31;;;;;;;18.00;13.70;;;20.00;76.90;;;;;;4905271;29;20043;-67
2022/08/15 04:50:58;;;;;;;14.70;13.13;;;20.10;77.00;;;;;;4915126;29;20039;-67
2022/08/15 04:53:27;;;;;;;14.93;12.70;;;20.20;77.30;;;;;;4915465;29;20058;-67
2022/08/15 04:55:55;;;;;;;16.07;13.00;;;20.20;77.20;;;;;;4899417;29;20044;-67
2022/08/15 04:58:22;;;;;;;15.17;12.37;;;20.30;77.20;;;;;;4896084;29;20071;-67
2022/08/15 05:01:02;;;;;;;18.10;13.07;;;20.30;77.10;;;;;;4915416;29;20055;-67
2022/08/15 05:03:28;;;;;;;14.60;11.87;;;20.40;77.10;;;;;;4912570;29;20044;-66
2022/08/15 05:06:01;;;;;;;15.80;12.67;;;20.40;77.00;;;;;;4906302;29;20552;-66
2022/08/15 05:08:29;;;;;;;14.33;12.10;;;20.50;77.00;;;;;;4912493;29;20047;-66
2022/08/15 05:11:01;;;;;;;14.57;12.13;;;20.50;77.00;;;;;;4911725;29;20087;-66
2022/08/15 05:13:30;;;;;;;16.63;12.60;;;20.50;77.00;;;;;;4915104;29;20048;-66
2022/08/15 05:15:58;;;;;;;15.60;12.53;;;20.60;77.00;;;;;;4895773;29;20039;-66
2022/08/15 05:18:24;;;;;;;15.50;12.47;;;20.70;77.00;;;;;;4903165;29;20054;-66
2022/08/15 05:20:51;;;;;;;17.87;12.90;;;20.70;76.70;;;;;;4913246;29;20086;-66
2022/08/15 05:23:19;;;;;;;15.93;13.00;;;20.80;76.60;;;;;;4910091;29;20114;-66
2022/08/15 05:25:49;;;;;;;16.30;13.00;;;20.90;76.30;;;;;;4898025;29;20036;-66
2022/08/15 05:28:15;;;;;;;15.23;12.00;;;20.90;76.20;;;;;;4891585;29;20453;-66
2022/08/15 05:30:41;;;;;;;17.83;12.83;;;21.00;76.10;;;;;;4917404;29;20087;-66
2022/08/15 05:33:11;;;;;;;16.57;13.33;;;21.10;75.70;;;;;;4899276;29;20036;-66
2022/08/15 05:35:41;;;;;;;17.37;13.33;;;21.10;75.40;;;;;;4910973;29;20099;-66
2022/08/15 05:38:14;;;;;;;15.27;13.03;;;21.20;75.10;;;;;;4890048;29;20516;-66
2022/08/15 05:41:06;;;;;;;15.10;12.60;;;21.20;74.70;;;;;;4910898;29;20051;-66
2022/08/15 05:44:06;;;;;;;19.57;12.90;;;21.30;74.20;;;;;;4878844;29;20074;-66
2022/08/15 05:46:41;;;;;;;20.93;13.63;;;21.30;73.70;;;;;;4912120;29;20075;-66
2022/08/15 05:49:13;;;;;;;;;;;21.40;73.80;;;;;;4908942;29;20047;-67
2022/08/15 05:51:47;;;;;;;16.67;12.93;;;21.40;73.50;;;;;;4913687;29;19918;-66
2022/08/15 05:54:28;;;;;;;16.35;13.30;;;21.50;73.30;;;;;;4908597;29;20048;-67
2022/08/15 05:57:26;;;;;;;18.50;13.50;;;21.50;73.20;;;;;;4910082;29;20048;-67
2022/08/15 05:59:56;;;;;;;14.87;12.47;;;21.60;73.10;;;;;;4876315;29;20047;-66
2022/08/15 06:02:47;;;;;;;15.03;13.13;;;21.70;73.10;;;;;;4913476;29;20051;-67
2022/08/15 06:05:20;;;;;;;14.53;12.60;;;21.80;72.80;;;;;;4896982;29;20040;-66
2022/08/15 06:07:49;;;;;;;14.70;12.00;;;21.80;72.80;;;;;;4896158;29;20054;-67
2022/08/15 06:10:33;;;;;;;13.83;12.17;;;21.90;72.50;;;;;;4910359;29;20532;-66
2022/08/15 06:13:14;;;;;;;16.40;11.90;;;22.00;72.00;;;;;;4910273;29;20043;-67
2022/08/15 06:15:58;;;;;;;15.17;11.60;;;22.00;71.70;;;;;;4908714;29;20130;-66
2022/08/15 06:18:26;;;;;;;14.40;11.70;;;22.10;71.70;;;;;;4927831;29;20499;-66
2022/08/15 06:21:26;;;;;;;14.23;11.30;;;22.20;71.50;;;;;;4904480;29;20047;-66
2022/08/15 06:24:29;;;;;;;13.53;10.73;;;22.30;71.20;;;;;;4903163;29;20052;-66
2022/08/15 06:27:14;;;;;;;15.73;10.90;;;22.40;70.90;;;;;;4909074;29;20040;-66
2022/08/15 06:29:40;;;;;;;;;;;22.50;70.60;;;;;;4904133;29;20060;-67
2022/08/15 06:32:29;;;;;;;12.73;10.80;;;22.70;70.40;;;;;;4894273;29;19919;-67
2022/08/15 06:35:16;;;;;;;13.00;10.53;;;22.80;69.40;;;;;;4894364;29;20040;-66
2022/08/15 06:38:01;;;;;;;13.73;10.73;;;23.00;68.70;;;;;;4908057;29;20520;-67
2022/08/15 06:40:46;;;;;;;;;;;23.10;68.40;;;;;;4892965;29;20531;-67
2022/08/15 06:43:13;;;;;;;12.90;10.38;;;23.20;68.00;;;;;;4914615;29;19922;-67
2022/08/15 06:45:43;;;;;;;15.47;10.50;;;23.30;68.40;;;;;;4913979;29;20043;-66
2022/08/15 06:48:13;;;;;;;12.90;10.77;;;23.50;68.30;;;;;;4908793;29;20036;-66
2022/08/15 06:50:49;;;;;;;12.90;10.23;;;23.70;68.20;;;;;;4911338;29;20551;-67
2022/08/15 06:53:18;;;;;;;12.37;10.13;;;23.90;67.70;;;;;;4911257;29;20110;-67
2022/08/15 06:55:57;;;;;;;11.80;9.80;;;24.10;66.90;;;;;;4898719;29;20052;-67
2022/08/15 06:58:56;;;;;;;11.33;10.13;;;24.40;66.70;;;;;;4905858;29;20036;-67
2022/08/15 07:01:36;;;;;;;12.87;10.90;;;24.50;65.70;;;;;;4902822;29;20059;-67
2022/08/15 07:04:36;;;;;;;12.60;9.77;;;24.60;65.30;;;;;;4901316;29;20051;-67
2022/08/15 07:07:10;;;;;;;14.63;9.90;;;24.60;65.40;;;;;;4885585;29;20177;-67
2022/08/15 07:10:00;;;;;;;11.63;10.30;;;24.70;65.30;;;;;;4909380;29;20119;-67
2022/08/15 07:13:00;;;;;;;11.57;9.33;;;24.90;64.80;;;;;;4905615;29;20408;-67
2022/08/15 07:15:35;;;;;;;11.33;8.90;;;24.90;64.60;;;;;;4908596;29;20072;-67
2022/08/15 07:18:08;;;;;;;12.80;9.53;;;24.90;64.70;;;;;;4912239;29;20051;-67
2022/08/15 07:20:35;;;;;;;13.17;9.60;;;24.90;64.30;;;;;;4905337;29;20055;-67
2022/08/15 07:23:24;;;;;;;11.40;9.77;;;25.00;64.40;;;;;;4894616;29;20039;-67
2022/08/15 07:25:52;;;;;;;11.50;9.80;;;25.10;63.80;;;;;;4892733;29;20062;-67
2022/08/15 07:28:24;;;;;;;10.33;8.90;;;25.20;64.00;;;;;;4904463;29;20067;-67
2022/08/15 07:31:04;;;;;;;10.87;8.70;;;25.30;64.10;;;;;;4895033;29;20055;-67
2022/08/15 07:33:41;;;;;;;12.30;9.57;;;25.40;63.60;;;;;;4915053;29;20576;-67
2022/08/15 07:36:26;;;;;;;11.97;9.87;;;25.40;63.10;;;;;;4913192;29;20107;-67
2022/08/15 07:38:54;;;;;;;9.88;8.88;;;25.50;62.60;;;;;;4909169;29;20405;-67
2022/08/15 07:41:24;;;;;;;11.50;9.20;;;25.60;62.90;;;;;;4890491;29;20445;-67
2022/08/15 07:43:59;;;;;;;13.00;10.60;;;25.60;62.60;;;;;;4909238;29;20052;-67
2022/08/15 07:46:37;;;;;;;11.80;9.27;;;25.70;62.60;;;;;;4885546;29;20491;-67
2022/08/15 07:49:17;;;;;;;11.17;9.23;;;25.70;62.60;;;;;;4915428;29;20039;-67
2022/08/15 07:51:49;;;;;;;11.37;9.80;;;25.70;62.60;;;;;;4912733;29;20043;-67
2022/08/15 07:54:45;;;;;;;10.60;9.37;;;25.90;62.40;;;;;;4909601;29;20484;-67
2022/08/15 07:57:23;;;;;;;10.60;9.30;;;25.80;62.40;;;;;;4911536;29;20356;-67
2022/08/15 08:00:08;;;;;;;11.57;8.87;;;25.80;62.40;;;;;;4903257;29;20046;-67
2022/08/15 08:02:42;;;;;;;8.57;7.67;;;25.80;61.80;;;;;;4914780;29;20123;-67
2022/08/15 08:05:09;;;;;;;9.90;8.88;;;26.00;61.30;;;;;;4932574;29;20035;-69
2022/08/15 08:07:42;;;;;;;9.63;8.60;;;26.00;60.50;;;;;;4914460;29;20130;-69
2022/08/15 08:10:08;;;;;;;9.20;8.03;;;26.00;60.90;;;;;;4897295;29;20043;-68
2022/08/15 08:13:15;;;;;;;10.10;9.07;;;25.90;61.40;;;;;;4908890;29;20408;-69
2022/08/15 08:15:44;;;;;;;8.57;7.67;;;25.90;60.70;;;;;;4914665;29;20055;-69
2022/08/15 08:18:18;;;;;;;10.43;9.23;;;26.10;61.50;;;;;;4895558;29;20048;-69
2022/08/15 08:20:52;;;;;;;10.73;8.13;;;26.20;61.00;;;;;;4897033;29;20087;-69
2022/08/15 08:23:42;;;;;;;10.02;9.02;;;26.30;61.50;;;;;;4916681;29;20245;-68
2022/08/15 08:26:40;;;;;;;10.60;8.33;;;26.60;60.90;;;;;;4909850;29;20051;-68
2022/08/15 08:29:08;;;;;;;13.23;9.10;;;26.80;60.60;;;;;;4906150;29;20392;-68
2022/08/15 08:32:04;;;;;;;10.57;9.47;;;27.10;59.90;;;;;;4919540;29;20044;-69
2022/08/15 08:34:48;;;;;;;9.33;7.93;;;27.20;59.20;;;;;;4903928;29;20319;-69
2022/08/15 08:37:31;;;;;;;9.30;7.33;;;27.30;57.80;;;;;;4895849;29;20039;-69
2022/08/15 08:43:29;;;;;;;7.13;6.43;;;27.50;58.40;;;;;;4898711;29;20401;-69
2022/08/15 08:46:20;;;;;;;9.27;6.90;;;27.80;57.70;;;;;;4929417;29;20051;-69
2022/08/15 08:49:04;;;;;;;8.70;6.63;;;28.00;57.80;;;;;;4909414;29;20149;-69
2022/08/15 08:51:42;;;;;;;7.75;6.95;;;28.00;56.50;;;;;;4891283;29;20074;-69
2022/08/15 08:54:35;;;;;;;8.73;7.83;;;28.00;56.60;;;;;;4926076;29;20062;-69
2022/08/15 08:57:04;;;;;;;10.17;7.40;;;28.00;56.50;;;;;;4913816;29;20143;-69
2022/08/15 08:59:39;;;;;;;7.70;7.00;;;28.20;55.70;;;;;;4906380;29;20130;-69
2022/08/15 09:02:27;;;;;;;10.07;8.70;;;28.30;55.00;;;;;;4902938;29;20070;-69
2022/08/15 09:05:26;;;;;;;18.10;8.87;;;28.30;55.70;;;;;;4910419;29;20035;-69
2022/08/15 09:07:57;;;;;;;9.63;8.47;;;28.30;56.60;;;;;;4904923;29;20054;-70
2022/08/15 09:10:32;;;;;;;12.73;11.47;;;28.40;57.20;;;;;;4908387;29;20127;-70
2022/08/15 09:15:48;;;;;;;10.97;9.87;;;28.30;57.60;;;;;;4907969;29;20043;-68
2022/08/15 09:18:39;;;;;;;10.60;9.60;;;28.40;58.30;;;;;;4906842;29;20423;-68
2022/08/15 09:21:05;;;;;;;11.73;10.30;;;28.70;57.80;;;;;;4924817;29;20055;-68
2022/08/15 09:23:40;;;;;;;11.20;10.03;;;28.90;56.70;;;;;;4895312;29;20039;-68
2022/08/15 09:26:05;;;;;;;;;;;29.00;56.00;;;;;;4909057;29;20412;-68
2022/08/15 09:28:34;;;;;;;11.63;10.43;;;29.00;55.90;;;;;;4910674;29;19923;-68
2022/08/15 09:31:15;;;;;;;10.87;9.63;;;28.90;55.50;;;;;;4910844;29;20408;-68
2022/08/15 09:33:51;;;;;;;13.93;10.87;;;29.10;56.30;;;;;;4912712;29;20044;-68
2022/08/15 09:36:46;;;;;;;11.77;10.47;;;29.20;56.60;;;;;;4918396;29;20043;-68
2022/08/15 09:39:26;;;;;;;12.13;10.93;;;29.30;56.60;;;;;;4907675;29;20114;-68
2022/08/15 09:42:10;;;;;;;11.40;10.17;;;29.40;56.40;;;;;;4912423;29;20148;-68
2022/08/15 09:45:04;;;;;;;11.20;10.10;;;29.50;56.60;;;;;;4909970;29;20047;-68
2022/08/15 09:47:35;;;;;;;15.57;13.48;;;29.60;56.80;;;;;;4906195;29;20042;-68
2022/08/15 09:50:30;;;;;;;15.73;14.03;;;29.60;58.00;;;;;;4911867;29;20043;-68
2022/08/15 09:53:06;;;;;;;15.03;13.40;;;29.60;58.10;;;;;;4925571;29;20056;-68
2022/08/15 09:55:44;;;;;;;13.57;12.17;;;29.60;58.50;;;;;;4903490;29;20047;-68
2022/08/15 09:58:20;;;;;;;16.40;14.63;;;29.50;58.40;;;;;;4894823;29;20043;-69
2022/08/15 10:01:14;;;;;;;18.50;16.40;;;29.30;58.30;;;;;;4909859;29;20036;-70
2022/08/15 10:03:43;;;;;;;17.30;13.82;;;29.20;58.40;;;;;;4922537;29;20123;-69
2022/08/15 10:06:15;;;;;;;17.40;15.33;;;29.00;59.10;;;;;;4909959;29;20185;-69
2022/08/15 10:08:53;;;;;;;20.13;14.93;;;29.00;59.10;;;;;;4924157;29;20134;-69
2022/08/15 10:11:38;;;;;;;16.23;13.13;;;28.80;59.10;;;;;;4913351;29;20543;-69
2022/08/15 10:14:06;;;;;;;13.05;11.63;;;28.50;59.70;;;;;;4896074;29;20675;-69
2022/08/15 10:16:41;;;;;;;13.27;10.90;;;28.40;60.70;;;;;;4913035;29;20039;-70
2022/08/15 10:19:31;;;;;;;14.13;11.90;;;28.50;60.20;;;;;;4910914;29;20040;-70
2022/08/15 10:22:00;;;;;;;14.03;10.83;;;28.70;59.30;;;;;;4910105;29;20043;-70
2022/08/15 10:24:36;;;;;;;14.53;10.00;;;28.60;59.50;;;;;;4892855;29;20075;-69
2022/08/15 10:27:22;;;;;;;13.53;10.97;;;28.70;59.00;;;;;;4908718;29;20047;-69
2022/08/15 10:29:52;;;;;;;12.73;10.27;;;28.60;57.40;;;;;;4908737;29;20043;-69
2022/08/15 10:32:26;;;;;;;11.90;10.60;;;28.50;58.10;;;;;;4908675;29;20043;-69
2022/08/15 10:34:56;;;;;;;12.67;9.03;;;28.40;58.10;;;;;;4911227;29;20126;-68
2022/08/15 10:37:30;;;;;;;11.90;10.63;;;28.30;58.20;;;;;;4887168;29;20069;-69
2022/08/15 10:40:23;;;;;;;11.13;9.55;;;28.20;58.00;;;;;;4903822;29;20491;-68
2022/08/15 10:43:23;;;;;;;12.97;10.00;;;28.20;57.90;;;;;;4909097;29;20055;-69
2022/08/15 10:45:55;;;;;;;13.00;10.90;;;28.30;58.70;;;;;;4910558;29;20051;-69
2022/08/15 10:49:01;;;;;;;10.30;9.20;;;28.40;58.00;;;;;;4908639;29;20059;-69
2022/08/15 10:51:56;;;;;;;10.10;8.83;;;28.50;57.50;;;;;;4859636;29;20060;-69
2022/08/15 10:55:00;;;;;;;13.43;9.87;;;28.70;57.40;;;;;;4913433;29;20358;-69
2022/08/15 10:57:29;;;;;;;13.50;11.20;;;28.80;56.70;;;;;;4910839;29;20036;-69
2022/08/15 10:59:54;;;;;;;12.30;11.00;;;28.80;56.30;;;;;;4911684;29;20520;-69
2022/08/15 11:02:49;;;;;;;12.53;11.23;;;28.70;56.50;;;;;;4912046;29;20047;-69
2022/08/15 11:05:19;;;;;;;11.70;10.50;;;28.80;55.50;;;;;;4895595;29;20039;-69
2022/08/15 11:07:51;;;;;;;15.50;11.63;;;28.80;56.20;;;;;;4911365;29;20043;-69
2022/08/15 11:10:23;;;;;;;14.90;13.30;;;28.90;55.70;;;;;;4913113;29;20047;-69
2022/08/15 11:12:53;;;;;;;12.07;10.60;;;29.00;55.50;;;;;;4918408;29;20048;-69
2022/08/15 11:15:26;;;;;;;11.63;10.23;;;29.00;55.30;;;;;;4892931;29;20110;-69
2022/08/15 11:18:08;;;;;;;14.73;12.80;;;28.90;55.40;;;;;;4907253;29;20094;-68
2022/08/15 11:20:44;;;;;;;12.60;11.17;;;28.90;54.90;;;;;;4892983;29;20523;-69
2022/08/15 11:23:10;;;;;;;12.87;11.20;;;28.70;55.80;;;;;;4897817;29;20146;-69
2022/08/15 11:25:39;;;;;;;11.03;9.83;;;28.60;56.00;;;;;;4915255;29;20042;-69
2022/08/15 11:28:12;;;;;;;14.50;12.40;;;28.50;56.40;;;;;;4915618;29;20118;-69
2022/08/15 11:30:40;;;;;;;14.70;11.90;;;28.60;56.50;;;;;;4898518;29;20157;-69
2022/08/15 11:33:23;;;;;;;14.00;12.43;;;28.60;57.50;;;;;;4887487;29;20055;-69
2022/08/15 11:36:02;;;;;;;14.83;12.33;;;28.50;58.40;;;;;;4894351;29;20051;-69
2022/08/15 11:38:31;;;;;;;17.20;12.53;;;28.50;58.00;;;;;;4900047;29;20074;-69
2022/08/15 11:40:59;;;;;;;14.23;11.30;;;28.70;57.80;;;;;;4893917;29;20039;-69
2022/08/15 11:43:26;;;;;;;16.00;11.73;;;28.90;58.10;;;;;;4913732;29;20047;-70
2022/08/15 11:45:53;;;;;;;13.70;10.80;;;29.20;55.60;;;;;;4912515;29;20472;-69
2022/08/15 11:48:28;;;;;;;11.63;9.83;;;29.40;53.90;;;;;;4914097;29;20043;-70
2022/08/15 11:51:02;;;;;;;8.27;7.00;;;29.30;52.20;;;;;;4906519;29;20042;-69
2022/08/15 11:53:32;;;;;;;9.17;6.13;;;29.20;52.50;;;;;;4912432;29;20083;-69
2022/08/15 11:55:59;;;;;;;6.87;5.00;;;29.10;52.20;;;;;;4909045;29;20796;-69
2022/08/15 11:58:35;;;;;;;9.90;6.50;;;29.00;51.90;;;;;;4913886;29;20043;-69
2022/08/15 12:01:21;;;;;;;7.53;5.13;;;28.70;52.40;;;;;;4903639;29;20044;-70
2022/08/15 12:04:26;;;;;;;4.97;4.23;;;28.60;51.90;;;;;;4910904;29;20515;-69
2022/08/15 12:06:55;;;;;;;6.90;3.40;;;28.50;51.60;;;;;;4908085;29;20155;-69
2022/08/15 12:09:26;;;;;;;5.80;3.60;;;28.40;51.40;;;;;;4892129;29;20103;-69
2022/08/15 12:11:52;;;;;;;7.27;3.70;;;28.30;50.40;;;;;;4900563;29;20043;-69
2022/08/15 12:14:24;;;;;;;4.83;3.57;;;28.10;50.80;;;;;;4905936;29;20103;-69
2022/08/15 12:16:53;;;;;;;5.50;3.47;;;28.00;51.40;;;;;;4906334;29;20448;-69
2022/08/15 12:19:46;;;;;;;4.73;4.00;;;27.90;52.10;;;;;;4911350;29;20468;-69
2022/08/15 12:22:27;;;;;;;4.40;3.50;;;27.90;51.40;;;;;;4911693;29;20043;-68
2022/08/15 12:25:03;;;;;;;4.13;3.40;;;27.90;52.40;;;;;;4910429;29;20043;-69
2022/08/15 12:27:29;;;;;;;5.83;3.97;;;27.90;52.80;;;;;;4897313;29;20175;-68
2022/08/15 12:29:55;;;;;;;4.67;3.60;;;27.90;52.30;;;;;;4895387;29;20118;-69
2022/08/15 12:32:22;;;;;;;4.03;3.50;;;27.80;52.30;;;;;;4912378;29;20067;-68
2022/08/15 12:34:50;;;;;;;4.53;3.50;;;27.70;52.20;;;;;;4891294;29;20052;-68
2022/08/15 12:37:23;;;;;;;5.23;3.93;;;27.60;52.30;;;;;;4911368;29;20043;-68
2022/08/15 12:39:59;;;;;;;4.75;4.28;;;27.50;53.00;;;;;;4911242;29;20416;-68
2022/08/15 12:42:28;;;;;;;6.30;3.47;;;27.40;53.50;;;;;;4897158;29;20046;-68
2022/08/15 12:44:58;;;;;;;3.97;3.43;;;27.30;53.00;;;;;;4894666;29;20042;-69
2022/08/15 12:47:27;;;;;;;4.03;3.00;;;27.30;53.30;;;;;;4888985;29;20450;-68
2022/08/15 12:49:53;;;;;;;5.00;3.40;;;27.40;53.20;;;;;;4925165;29;20090;-69
2022/08/15 12:52:20;;;;;;;6.30;3.60;;;27.60;52.90;;;;;;4910375;29;20055;-68
2022/08/15 12:54:48;;;;;;;3.90;3.40;;;27.80;52.20;;;;;;4909028;29;20195;-68
2022/08/15 12:57:14;;;;;;;4.03;3.50;;;28.10;51.80;;;;;;4913366;29;20119;-69
2022/08/15 12:59:40;;;;;;;3.93;2.70;;;28.40;51.10;;;;;;4907865;29;20460;-68
2022/08/15 13:02:07;;;;;;;3.00;2.63;;;28.60;50.10;;;;;;4897477;29;20035;-69
2022/08/15 13:04:33;;;;;;;4.03;2.73;;;28.80;49.80;;;;;;4907583;29;20499;-68
2022/08/15 13:07:00;;;;;;;3.43;2.63;;;29.30;49.40;;;;;;4912723;29;20081;-69
2022/08/15 13:09:30;;;;;;;3.97;2.80;;;29.70;47.90;;;;;;4889409;29;20071;-69
2022/08/15 13:11:58;;;;;;;4.37;2.93;;;30.00;47.30;;;;;;4911574;29;20048;-69
2022/08/15 13:14:23;;;;;;;3.30;2.83;;;30.20;46.70;;;;;;4887631;29;20111;-69